sensor_id;sensor_type;location;lat;lon;timestamp;pressure;altitude;pressure_sealevel;temperature;humidity
15568;BME280;7885;42.596;23.044;2024-01-06T00:02:21;92710.84;;;10.32;62.73
15568;BME280;7885;42.596;23.044;2024-01-06T00:18:15;92736.50;;;10.24;61.96
15568;BME280;7885;42.596;23.044;2024-01-06T00:20:42;92734.19;;;10.23;62.12
15568;BME280;7885;42.596;23.044;2024-01-06T00:23:09;92734.59;;;10.21;60.87
15568;BME280;7885;42.596;23.044;2024-01-06T00:25:35;92735.78;;;10.17;61.13
15568;BME280;7885;42.596;23.044;2024-01-06T00:28:02;92735.78;;;10.20;61.72
15568;BME280;7885;42.596;23.044;2024-01-06T00:30:29;92746.66;;;10.20;61.91
15568;BME280;7885;42.596;23.044;2024-01-06T00:32:56;92738.88;;;10.19;61.68
15568;BME280;7885;42.596;23.044;2024-01-06T00:35:24;92735.00;;;10.16;62.44
15568;BME280;7885;42.596;23.044;2024-01-06T00:37:50;92731.91;;;10.14;62.81
15568;BME280;7885;42.596;23.044;2024-01-06T00:40:17;92728.00;;;10.08;62.95
15568;BME280;7885;42.596;23.044;2024-01-06T00:42:45;92730.34;;;10.13;62.85
15568;BME280;7885;42.596;23.044;2024-01-06T00:45:11;92738.09;;;10.18;62.83
15568;BME280;7885;42.596;23.044;2024-01-06T00:47:38;92737.31;;;10.21;62.68
15568;BME280;7885;42.596;23.044;2024-01-06T00:50:05;92734.59;;;10.21;63.25
15568;BME280;7885;42.596;23.044;2024-01-06T00:52:33;92731.88;;;10.21;64.24
15568;BME280;7885;42.596;23.044;2024-01-06T00:55:00;92738.09;;;10.18;64.21
15568;BME280;7885;42.596;23.044;2024-01-06T00:57:27;92739.28;;;10.13;64.53
15568;BME280;7885;42.596;23.044;2024-01-06T00:59:53;92733.81;;;10.17;64.36
15568;BME280;7885;42.596;23.044;2024-01-06T01:02:21;92728.78;;;10.12;65.19
15568;BME280;7885;42.596;23.044;2024-01-06T01:04:47;92729.56;;;10.12;64.76
15568;BME280;7885;42.596;23.044;2024-01-06T01:07:14;92723.34;;;10.12;65.55
15568;BME280;7885;42.596;23.044;2024-01-06T01:09:42;92718.00;;;9.91;65.70
15568;BME280;7885;42.596;23.044;2024-01-06T01:12:09;92716.84;;;9.92;65.70
15568;BME280;7885;42.596;23.044;2024-01-06T01:14:36;92726.56;;;9.89;65.91
15568;BME280;7885;42.596;23.044;2024-01-06T01:17:03;92711.41;;;9.85;65.83
15568;BME280;7885;42.596;23.044;2024-01-06T01:19:29;92712.22;;;9.82;65.53
15568;BME280;7885;42.596;23.044;2024-01-06T01:21:56;92702.88;;;9.79;65.84
15568;BME280;7885;42.596;23.044;2024-01-06T01:24:23;92709.47;;;9.85;66.32
15568;BME280;7885;42.596;23.044;2024-01-06T01:26:51;92708.72;;;9.85;66.40
15568;BME280;7885;42.596;23.044;2024-01-06T01:29:17;92697.84;;;9.85;65.98
15568;BME280;7885;42.596;23.044;2024-01-06T01:31:45;92701.75;;;9.77;66.27
15568;BME280;7885;42.596;23.044;2024-01-06T01:34:12;92687.78;;;9.75;66.56
15568;BME280;7885;42.596;23.044;2024-01-06T01:36:39;92689.28;;;9.79;66.75
15568;BME280;7885;42.596;23.044;2024-01-06T01:39:06;92685.06;;;9.75;67.03
15568;BME280;7885;42.596;23.044;2024-01-06T01:41:33;92678.88;;;9.71;67.25
15568;BME280;7885;42.596;23.044;2024-01-06T01:47:22;92683.53;;;9.63;67.48
15568;BME280;7885;42.596;23.044;2024-01-06T01:49:49;92670.00;;;9.52;67.64
15568;BME280;7885;42.596;23.044;2024-01-06T01:52:16;92678.53;;;9.61;68.77
15568;BME280;7885;42.596;23.044;2024-01-06T01:54:45;92682.41;;;9.53;68.75
15568;BME280;7885;42.596;23.044;2024-01-06T01:57:12;92679.28;;;9.55;68.50
15568;BME280;7885;42.596;23.044;2024-01-06T01:59:40;92681.63;;;9.56;68.97
15568;BME280;7885;42.596;23.044;2024-01-06T02:02:08;92679.28;;;9.58;68.58
15568;BME280;7885;42.596;23.044;2024-01-06T02:04:36;92676.56;;;9.58;68.22
15568;BME280;7885;42.596;23.044;2024-01-06T02:07:03;92652.91;;;9.55;68.16
15568;BME280;7885;42.596;23.044;2024-01-06T02:16:19;92649.44;;;9.51;68.43
15568;BME280;7885;42.596;23.044;2024-01-06T02:18:46;92646.75;;;9.48;68.48
15568;BME280;7885;42.596;23.044;2024-01-06T02:21:14;92643.66;;;9.42;68.59
15568;BME280;7885;42.596;23.044;2024-01-06T02:23:43;92644.41;;;9.46;68.11
15568;BME280;7885;42.596;23.044;2024-01-06T02:26:09;92631.59;;;9.47;68.10
15568;BME280;7885;42.596;23.044;2024-01-06T02:28:36;92641.25;;;9.55;67.77
15568;BME280;7885;42.596;23.044;2024-01-06T02:31:03;92636.22;;;9.57;67.67
15568;BME280;7885;42.596;23.044;2024-01-06T02:33:30;92623.00;;;9.62;68.00
15568;BME280;7885;42.596;23.044;2024-01-06T02:35:56;92626.50;;;9.63;69.03
15568;BME280;7885;42.596;23.044;2024-01-06T02:38:23;92613.38;;;9.47;68.51
15568;BME280;7885;42.596;23.044;2024-01-06T02:40:51;92607.16;;;9.50;69.36
15568;BME280;7885;42.596;23.044;2024-01-06T02:43:18;92613.38;;;9.51;69.90
15568;BME280;7885;42.596;23.044;2024-01-06T02:45:44;92616.44;;;9.56;69.48
15568;BME280;7885;42.596;23.044;2024-01-06T02:48:12;92600.91;;;9.60;68.38
15568;BME280;7885;42.596;23.044;2024-01-06T02:50:38;92610.97;;;9.63;69.20
15568;BME280;7885;42.596;23.044;2024-01-06T02:53:05;92600.84;;;9.68;69.09
15568;BME280;7885;42.596;23.044;2024-01-06T02:55:32;92594.66;;;9.67;68.82
15568;BME280;7885;42.596;23.044;2024-01-06T02:58:00;92579.16;;;9.60;68.63
15568;BME280;7885;42.596;23.044;2024-01-06T03:00:26;92593.50;;;9.68;67.97
15568;BME280;7885;42.596;23.044;2024-01-06T03:02:53;92598.13;;;9.71;68.41
15568;BME280;7885;42.596;23.044;2024-01-06T03:05:20;92594.31;;;9.61;68.87
15568;BME280;7885;42.596;23.044;2024-01-06T03:07:46;92596.22;;;9.64;68.55
15568;BME280;7885;42.596;23.044;2024-01-06T03:10:13;92579.53;;;9.59;69.44
15568;BME280;7885;42.596;23.044;2024-01-06T03:12:40;92580.72;;;9.58;68.53
15568;BME280;7885;42.596;23.044;2024-01-06T03:15:08;92594.66;;;9.63;69.09
15568;BME280;7885;42.596;23.044;2024-01-06T03:17:36;92594.25;;;9.69;68.91
15568;BME280;7885;42.596;23.044;2024-01-06T03:20:14;92603.94;;;9.73;68.65
15568;BME280;7885;42.596;23.044;2024-01-06T03:22:41;92600.44;;;9.73;68.40
15568;BME280;7885;42.596;23.044;2024-01-06T03:25:08;92602.34;;;9.76;68.42
15568;BME280;7885;42.596;23.044;2024-01-06T03:27:35;92605.44;;;9.81;68.35
15568;BME280;7885;42.596;23.044;2024-01-06T03:30:02;92591.41;;;9.90;67.81
15568;BME280;7885;42.596;23.044;2024-01-06T03:32:30;92592.19;;;9.90;68.52
15568;BME280;7885;42.596;23.044;2024-01-06T03:34:57;92584.81;;;9.91;68.11
15568;BME280;7885;42.596;23.044;2024-01-06T03:37:23;92577.03;;;9.93;68.32
15568;BME280;7885;42.596;23.044;2024-01-06T03:39:50;92575.84;;;9.94;67.60
15568;BME280;7885;42.596;23.044;2024-01-06T03:42:17;92585.13;;;10.00;68.18
15568;BME280;7885;42.596;23.044;2024-01-06T03:44:43;92578.97;;;9.92;68.50
15568;BME280;7885;42.596;23.044;2024-01-06T03:47:10;92574.31;;;9.93;68.77
15568;BME280;7885;42.596;23.044;2024-01-06T03:49:38;92582.09;;;9.91;69.45
15568;BME280;7885;42.596;23.044;2024-01-06T03:52:05;92573.56;;;9.89;70.18
15568;BME280;7885;42.596;23.044;2024-01-06T03:54:32;92563.09;;;9.87;69.27
15568;BME280;7885;42.596;23.044;2024-01-06T03:56:58;92559.25;;;9.78;70.12
15568;BME280;7885;42.596;23.044;2024-01-06T03:59:25;92580.56;;;9.83;70.22
15568;BME280;7885;42.596;23.044;2024-01-06T04:01:52;92575.13;;;9.83;70.15
15568;BME280;7885;42.596;23.044;2024-01-06T04:04:19;92577.09;;;9.86;70.01
15568;BME280;7885;42.596;23.044;2024-01-06T04:06:47;92559.59;;;9.83;70.20
15568;BME280;7885;42.596;23.044;2024-01-06T04:09:14;92566.59;;;9.84;70.36
15568;BME280;7885;42.596;23.044;2024-01-06T04:11:41;92569.31;;;9.84;70.66
15568;BME280;7885;42.596;23.044;2024-01-06T04:14:07;92575.13;;;9.86;71.01
15568;BME280;7885;42.596;23.044;2024-01-06T04:16:34;92572.41;;;9.86;71.00
15568;BME280;7885;42.596;23.044;2024-01-06T04:19:00;92582.78;;;10.02;70.69
15568;BME280;7885;42.596;23.044;2024-01-06T04:21:27;92544.88;;;9.81;70.69
15568;BME280;7885;42.596;23.044;2024-01-06T04:23:55;92578.13;;;10.06;70.93
15568;BME280;7885;42.596;23.044;2024-01-06T04:26:22;92577.38;;;10.02;71.14
15568;BME280;7885;42.596;23.044;2024-01-06T04:28:49;92577.28;;;10.12;71.28
15568;BME280;7885;42.596;23.044;2024-01-06T04:31:15;92588.16;;;10.16;71.95
15568;BME280;7885;42.596;23.044;2024-01-06T04:33:42;92592.00;;;10.22;71.91
15568;BME280;7885;42.596;23.044;2024-01-06T04:36:09;92588.91;;;10.24;72.01
15568;BME280;7885;42.596;23.044;2024-01-06T04:38:35;92584.28;;;10.13;72.76
15568;BME280;7885;42.596;23.044;2024-01-06T04:41:03;92590.44;;;10.21;72.46
15568;BME280;7885;42.596;23.044;2024-01-06T04:43:30;92592.00;;;10.22;72.75
15568;BME280;7885;42.596;23.044;2024-01-06T04:45:57;92582.69;;;10.23;72.96
15568;BME280;7885;42.596;23.044;2024-01-06T04:48:23;92578.06;;;10.13;73.48
15568;BME280;7885;42.596;23.044;2024-01-06T04:50:50;92579.56;;;10.25;73.26
15568;BME280;7885;42.596;23.044;2024-01-06T04:53:17;92581.88;;;10.26;73.85
15568;BME280;7885;42.596;23.044;2024-01-06T04:55:44;92576.50;;;10.19;74.32
15568;BME280;7885;42.596;23.044;2024-01-06T04:58:12;92580.31;;;10.25;74.58
15568;BME280;7885;42.596;23.044;2024-01-06T05:00:38;92576.09;;;10.17;74.88
15568;BME280;7885;42.596;23.044;2024-01-06T05:03:05;92567.56;;;10.19;75.21
15568;BME280;7885;42.596;23.044;2024-01-06T05:05:32;92559.13;;;9.99;76.34
15568;BME280;7885;42.596;23.044;2024-01-06T05:07:58;92578.97;;;9.96;76.95
15568;BME280;7885;42.596;23.044;2024-01-06T05:10:25;92568.50;;;9.91;77.39
15568;BME280;7885;42.596;23.044;2024-01-06T05:12:52;92554.91;;;9.91;77.74
15568;BME280;7885;42.596;23.044;2024-01-06T05:15:20;92554.94;;;9.87;78.39
15568;BME280;7885;42.596;23.044;2024-01-06T05:17:47;92559.59;;;9.87;78.82
15568;BME280;7885;42.596;23.044;2024-01-06T05:20:13;92551.88;;;9.82;78.79
15568;BME280;7885;42.596;23.044;2024-01-06T05:22:40;92553.41;;;9.83;79.24
15568;BME280;7885;42.596;23.044;2024-01-06T05:25:08;92542.97;;;9.78;79.36
15568;BME280;7885;42.596;23.044;2024-01-06T05:27:35;92548.06;;;9.69;79.52
15568;BME280;7885;42.596;23.044;2024-01-06T05:30:02;92539.50;;;9.74;79.79
15568;BME280;7885;42.596;23.044;2024-01-06T05:32:30;92546.47;;;9.75;80.03
15568;BME280;7885;42.596;23.044;2024-01-06T05:34:56;92555.44;;;9.72;80.12
15568;BME280;7885;42.596;23.044;2024-01-06T05:37:23;92549.69;;;9.55;81.07
15568;BME280;7885;42.596;23.044;2024-01-06T05:39:50;92519.06;;;9.51;81.40
15568;BME280;7885;42.596;23.044;2024-01-06T05:42:17;92524.88;;;9.50;81.65
15568;BME280;7885;42.596;23.044;2024-01-06T05:44:43;92509.44;;;9.36;82.24
15568;BME280;7885;42.596;23.044;2024-01-06T05:47:10;92540.41;;;9.49;82.37
15568;BME280;7885;42.596;23.044;2024-01-06T05:49:42;92538.09;;;9.51;82.39
15568;BME280;7885;42.596;23.044;2024-01-06T05:52:09;92527.97;;;9.52;82.66
15568;BME280;7885;42.596;23.044;2024-01-06T05:54:36;92520.56;;;9.59;82.44
15568;BME280;7885;42.596;23.044;2024-01-06T05:57:03;92534.88;;;9.67;82.52
15568;BME280;7885;42.596;23.044;2024-01-06T05:59:32;92524.75;;;9.75;82.24
15568;BME280;7885;42.596;23.044;2024-01-06T06:01:59;92510.41;;;9.71;82.33
15568;BME280;7885;42.596;23.044;2024-01-06T06:04:26;92532.50;;;9.73;82.74
15568;BME280;7885;42.596;23.044;2024-01-06T06:06:54;92544.88;;;9.81;82.54
15568;BME280;7885;42.596;23.044;2024-01-06T06:09:21;92547.59;;;9.81;82.28
15568;BME280;7885;42.596;23.044;2024-01-06T06:11:47;92536.31;;;9.86;82.28
15568;BME280;7885;42.596;23.044;2024-01-06T06:14:14;92535.53;;;9.89;82.21
15568;BME280;7885;42.596;23.044;2024-01-06T06:16:41;92544.03;;;9.91;81.75
15568;BME280;7885;42.596;23.044;2024-01-06T06:19:08;92534.72;;;9.92;81.75
15568;BME280;7885;42.596;23.044;2024-01-06T06:21:34;92535.84;;;9.94;81.81
15568;BME280;7885;42.596;23.044;2024-01-06T06:24:03;92537.03;;;9.93;82.43
15568;BME280;7885;42.596;23.044;2024-01-06T06:26:30;92533.13;;;9.94;82.78
15568;BME280;7885;42.596;23.044;2024-01-06T06:28:57;92529.25;;;9.95;83.60
15568;BME280;7885;42.596;23.044;2024-01-06T06:31:24;92544.09;;;9.84;84.72
15568;BME280;7885;42.596;23.044;2024-01-06T06:33:51;92535.94;;;9.84;85.12
15568;BME280;7885;42.596;23.044;2024-01-06T06:36:17;92544.88;;;9.81;85.26
15568;BME280;7885;42.596;23.044;2024-01-06T06:38:45;92531.25;;;9.88;85.17
15568;BME280;7885;42.596;23.044;2024-01-06T06:44:41;92554.53;;;9.89;85.35
15568;BME280;7885;42.596;23.044;2024-01-06T06:47:07;92549.44;;;9.98;84.76
15568;BME280;7885;42.596;23.044;2024-01-06T06:49:34;92548.97;;;10.10;84.14
15568;BME280;7885;42.596;23.044;2024-01-06T06:52:01;92555.84;;;10.25;83.13
15568;BME280;7885;42.596;23.044;2024-01-06T06:54:29;92557.31;;;10.37;82.03
15568;BME280;7885;42.596;23.044;2024-01-06T06:56:56;92563.81;;;10.50;81.24
15568;BME280;7885;42.596;23.044;2024-01-06T06:59:22;92559.44;;;10.59;80.62
15568;BME280;7885;42.596;23.044;2024-01-06T07:01:50;92566.84;;;10.55;80.70
15568;BME280;7885;42.596;23.044;2024-01-06T07:04:17;92554.00;;;10.59;80.40
15568;BME280;7885;42.596;23.044;2024-01-06T07:06:44;92547.75;;;10.62;80.11
15568;BME280;7885;42.596;23.044;2024-01-06T07:09:10;92546.56;;;10.67;80.23
15568;BME280;7885;42.596;23.044;2024-01-06T07:11:37;92545.63;;;10.81;79.55
15568;BME280;7885;42.596;23.044;2024-01-06T07:14:04;92554.47;;;10.92;79.49
15568;BME280;7885;42.596;23.044;2024-01-06T07:16:31;92557.19;;;10.92;78.94
15568;BME280;7885;42.596;23.044;2024-01-06T07:18:59;92538.22;;;10.85;79.39
15568;BME280;7885;42.596;23.044;2024-01-06T07:21:25;92549.38;;;10.94;79.80
15568;BME280;7885;42.596;23.044;2024-01-06T07:23:52;92542.81;;;10.91;79.02
15568;BME280;7885;42.596;23.044;2024-01-06T07:26:19;92556.09;;;10.86;79.69
15568;BME280;7885;42.596;23.044;2024-01-06T07:28:45;92548.03;;;10.75;80.12
15568;BME280;7885;42.596;23.044;2024-01-06T07:31:12;92543.78;;;10.71;80.78
15568;BME280;7885;42.596;23.044;2024-01-06T07:33:39;92550.00;;;10.71;80.08
15568;BME280;7885;42.596;23.044;2024-01-06T07:36:07;92548.84;;;10.72;80.33
15568;BME280;7885;42.596;23.044;2024-01-06T07:38:34;92544.78;;;10.87;79.73
15568;BME280;7885;42.596;23.044;2024-01-06T07:41:00;92546.00;;;11.20;78.42
15568;BME280;7885;42.596;23.044;2024-01-06T07:46:48;92540.97;;;11.49;76.89
15568;BME280;7885;42.596;23.044;2024-01-06T07:49:15;92538.13;;;11.86;75.83
15568;BME280;7885;42.596;23.044;2024-01-06T07:51:43;92539.22;;;12.19;73.73
15568;BME280;7885;42.596;23.044;2024-01-06T07:54:10;92542.56;;;12.53;72.75
15568;BME280;7885;42.596;23.044;2024-01-06T07:56:37;92547.56;;;12.82;71.43
15568;BME280;7885;42.596;23.044;2024-01-06T07:59:04;92548.34;;;12.82;70.52
15568;BME280;7885;42.596;23.044;2024-01-06T08:01:31;92540.19;;;12.79;69.16
15568;BME280;7885;42.596;23.044;2024-01-06T08:03:57;92535.19;;;12.74;70.08
15568;BME280;7885;42.596;23.044;2024-01-06T08:06:25;92557.09;;;12.70;69.66
15568;BME280;7885;42.596;23.044;2024-01-06T08:08:53;92531.94;;;12.82;69.93
15568;BME280;7885;42.596;23.044;2024-01-06T08:11:20;92540.06;;;13.48;66.34
15568;BME280;7885;42.596;23.044;2024-01-06T08:13:47;92534.16;;;13.70;66.06
15568;BME280;7885;42.596;23.044;2024-01-06T08:16:13;92539.00;;;13.62;66.16
15568;BME280;7885;42.596;23.044;2024-01-06T08:18:40;92525.59;;;14.03;64.71
15568;BME280;7885;42.596;23.044;2024-01-06T08:21:07;92524.63;;;13.78;65.64
15568;BME280;7885;42.596;23.044;2024-01-06T08:23:33;92504.16;;;13.66;66.01
15568;BME280;7885;42.596;23.044;2024-01-06T08:26:02;92542.03;;;13.68;66.14
15568;BME280;7885;42.596;23.044;2024-01-06T08:28:29;92540.97;;;13.42;67.46
15568;BME280;7885;42.596;23.044;2024-01-06T08:30:55;92542.44;;;13.46;68.28
15568;BME280;7885;42.596;23.044;2024-01-06T08:53:22;92542.75;;;19.42;47.89
15568;BME280;7885;42.596;23.044;2024-01-06T08:55:49;92536.78;;;20.58;43.56
15568;BME280;7885;42.596;23.044;2024-01-06T08:58:15;92528.53;;;20.82;42.05
15568;BME280;7885;42.596;23.044;2024-01-06T09:00:43;92533.94;;;20.34;43.54
15568;BME280;7885;42.596;23.044;2024-01-06T09:03:10;92522.63;;;19.14;45.97
15568;BME280;7885;42.596;23.044;2024-01-06T09:09:00;92538.50;;;15.74;57.55
15568;BME280;7885;42.596;23.044;2024-01-06T09:11:27;92518.09;;;15.17;61.13
15568;BME280;7885;42.596;23.044;2024-01-06T09:13:54;92517.69;;;15.89;59.10
15568;BME280;7885;42.596;23.044;2024-01-06T09:16:20;92511.75;;;15.78;60.00
15568;BME280;7885;42.596;23.044;2024-01-06T09:18:47;92501.44;;;15.40;61.01
15568;BME280;7885;42.596;23.044;2024-01-06T09:21:14;92501.75;;;15.42;61.70
15568;BME280;7885;42.596;23.044;2024-01-06T09:23:42;92493.78;;;15.19;61.15
15568;BME280;7885;42.596;23.044;2024-01-06T09:26:10;92476.47;;;14.64;63.35
15568;BME280;7885;42.596;23.044;2024-01-06T09:28:37;92492.72;;;14.39;64.71
15568;BME280;7885;42.596;23.044;2024-01-06T09:31:04;92482.09;;;14.25;66.31
15568;BME280;7885;42.596;23.044;2024-01-06T09:33:31;92483.13;;;14.15;66.36
15568;BME280;7885;42.596;23.044;2024-01-06T09:35:59;92479.34;;;14.09;66.86
15568;BME280;7885;42.596;23.044;2024-01-06T09:38:26;92476.56;;;13.77;67.68
15568;BME280;7885;42.596;23.044;2024-01-06T09:40:53;92476.09;;;13.62;68.10
15568;BME280;7885;42.596;23.044;2024-01-06T09:43:21;92470.50;;;13.33;69.43
15568;BME280;7885;42.596;23.044;2024-01-06T09:45:53;92447.59;;;13.27;69.11
15568;BME280;7885;42.596;23.044;2024-01-06T09:48:29;92458.00;;;13.32;69.11
15568;BME280;7885;42.596;23.044;2024-01-06T09:50:56;92459.34;;;13.24;69.90
15568;BME280;7885;42.596;23.044;2024-01-06T09:53:28;92448.81;;;13.42;70.21
15568;BME280;7885;42.596;23.044;2024-01-06T09:56:00;92449.63;;;13.59;68.81
15568;BME280;7885;42.596;23.044;2024-01-06T09:58:30;92448.56;;;13.89;68.71
15568;BME280;7885;42.596;23.044;2024-01-06T10:01:00;92441.81;;;14.09;67.99
15568;BME280;7885;42.596;23.044;2024-01-06T10:06:48;92423.38;;;14.75;66.47
15568;BME280;7885;42.596;23.044;2024-01-06T10:09:15;92424.31;;;14.97;64.15
15568;BME280;7885;42.596;23.044;2024-01-06T10:11:41;92421.84;;;15.15;64.09
15568;BME280;7885;42.596;23.044;2024-01-06T10:14:09;92430.16;;;14.99;61.84
15568;BME280;7885;42.596;23.044;2024-01-06T10:16:38;92419.59;;;14.40;64.37
15568;BME280;7885;42.596;23.044;2024-01-06T10:19:05;92418.97;;;14.00;66.29
15568;BME280;7885;42.596;23.044;2024-01-06T10:21:32;92411.09;;;13.53;68.23
15568;BME280;7885;42.596;23.044;2024-01-06T10:24:00;92425.94;;;13.52;69.86
15568;BME280;7885;42.596;23.044;2024-01-06T10:26:26;92430.50;;;13.23;71.47
15568;BME280;7885;42.596;23.044;2024-01-06T10:28:53;92402.63;;;13.12;71.54
15568;BME280;7885;42.596;23.044;2024-01-06T10:31:21;92406.53;;;13.47;70.81
15568;BME280;7885;42.596;23.044;2024-01-06T10:33:48;92397.75;;;13.55;70.06
15568;BME280;7885;42.596;23.044;2024-01-06T10:36:15;92392.03;;;13.66;69.18
15568;BME280;7885;42.596;23.044;2024-01-06T10:38:42;92404.03;;;13.88;70.00
15568;BME280;7885;42.596;23.044;2024-01-06T10:41:11;92394.03;;;13.82;68.96
15568;BME280;7885;42.596;23.044;2024-01-06T10:43:41;92397.25;;;13.77;69.63
15568;BME280;7885;42.596;23.044;2024-01-06T10:46:09;92372.13;;;13.49;70.08
15568;BME280;7885;42.596;23.044;2024-01-06T10:48:38;92368.88;;;13.54;70.73
15568;BME280;7885;42.596;23.044;2024-01-06T10:51:08;92362.88;;;13.43;71.67
15568;BME280;7885;42.596;23.044;2024-01-06T10:53:35;92364.94;;;13.55;71.98
15568;BME280;7885;42.596;23.044;2024-01-06T10:56:03;92361.03;;;13.56;71.41
15568;BME280;7885;42.596;23.044;2024-01-06T10:58:32;92362.56;;;13.57;71.50
15568;BME280;7885;42.596;23.044;2024-01-06T11:01:00;92364.09;;;13.42;72.25
15568;BME280;7885;42.596;23.044;2024-01-06T11:03:28;92358.69;;;13.39;72.14
15568;BME280;7885;42.596;23.044;2024-01-06T11:05:57;92362.88;;;13.43;72.21
15568;BME280;7885;42.596;23.044;2024-01-06T11:08:25;92342.56;;;13.44;72.10
15568;BME280;7885;42.596;23.044;2024-01-06T11:10:53;92338.81;;;13.54;72.75
15568;BME280;7885;42.596;23.044;2024-01-06T11:13:22;92342.66;;;13.57;71.98
15568;BME280;7885;42.596;23.044;2024-01-06T11:15:51;92340.84;;;13.99;70.80
15568;BME280;7885;42.596;23.044;2024-01-06T11:18:32;92326.81;;;15.12;66.93
15568;BME280;7885;42.596;23.044;2024-01-06T11:21:17;92336.16;;;15.52;64.06
15568;BME280;7885;42.596;23.044;2024-01-06T11:24:07;92302.25;;;15.08;66.23
15568;BME280;7885;42.596;23.044;2024-01-06T11:26:38;92303.97;;;14.48;68.24
15568;BME280;7885;42.596;23.044;2024-01-06T11:29:05;92292.72;;;14.30;68.65
15568;BME280;7885;42.596;23.044;2024-01-06T11:31:34;92301.72;;;13.86;69.11
15568;BME280;7885;42.596;23.044;2024-01-06T11:34:12;92298.97;;;13.70;70.82
15568;BME280;7885;42.596;23.044;2024-01-06T11:36:43;92297.81;;;13.54;71.65
15568;BME280;7885;42.596;23.044;2024-01-06T11:39:33;92288.22;;;13.62;72.19
15568;BME280;7885;42.596;23.044;2024-01-06T11:42:00;92269.41;;;13.81;71.79
15568;BME280;7885;42.596;23.044;2024-01-06T11:44:28;92271.28;;;13.84;71.26
15568;BME280;7885;42.596;23.044;2024-01-06T11:46:56;92259.84;;;13.89;70.41
15568;BME280;7885;42.596;23.044;2024-01-06T11:49:26;92262.00;;;14.10;70.62
15568;BME280;7885;42.596;23.044;2024-01-06T11:51:56;92271.16;;;14.32;69.52
15568;BME280;7885;42.596;23.044;2024-01-06T11:54:23;92257.72;;;14.38;68.34
15568;BME280;7885;42.596;23.044;2024-01-06T11:56:49;92235.09;;;14.50;68.84
15568;BME280;7885;42.596;23.044;2024-01-06T11:59:18;92237.31;;;14.26;69.46
15568;BME280;7885;42.596;23.044;2024-01-06T12:01:45;92234.53;;;13.85;70.75
15568;BME280;7885;42.596;23.044;2024-01-06T12:04:14;92248.16;;;13.56;72.27
15568;BME280;7885;42.596;23.044;2024-01-06T12:06:40;92233.59;;;13.30;74.11
15568;BME280;7885;42.596;23.044;2024-01-06T12:09:10;92236.31;;;13.30;74.45
15568;BME280;7885;42.596;23.044;2024-01-06T12:11:39;92233.41;;;13.37;75.06
15568;BME280;7885;42.596;23.044;2024-01-06T12:14:06;92241.44;;;13.44;74.95
15568;BME280;7885;42.596;23.044;2024-01-06T12:16:33;92224.50;;;13.49;73.51
15568;BME280;7885;42.596;23.044;2024-01-06T12:19:01;92229.03;;;13.56;72.14
15568;BME280;7885;42.596;23.044;2024-01-06T12:21:29;92229.97;;;13.49;72.47
15568;BME280;7885;42.596;23.044;2024-01-06T12:26:51;92230.69;;;13.37;74.19
15568;BME280;7885;42.596;23.044;2024-01-06T12:29:17;92211.38;;;13.44;73.89
15568;BME280;7885;42.596;23.044;2024-01-06T12:31:46;92221.91;;;13.75;72.96
15568;BME280;7885;42.596;23.044;2024-01-06T12:34:12;92196.53;;;14.03;72.13
15568;BME280;7885;42.596;23.044;2024-01-06T12:36:40;92199.44;;;14.79;68.07
15568;BME280;7885;42.596;23.044;2024-01-06T12:39:10;92180.56;;;14.81;68.29
15568;BME280;7885;42.596;23.044;2024-01-06T12:41:38;92202.59;;;14.64;69.10
15568;BME280;7885;42.596;23.044;2024-01-06T12:44:08;92190.50;;;15.25;67.43
15568;BME280;7885;42.596;23.044;2024-01-06T12:46:35;92200.41;;;15.70;63.25
15568;BME280;7885;42.596;23.044;2024-01-06T12:49:02;92198.03;;;15.46;63.44
15568;BME280;7885;42.596;23.044;2024-01-06T12:51:29;92227.47;;;14.95;64.18
15568;BME280;7885;42.596;23.044;2024-01-06T12:53:56;92206.22;;;14.74;66.16
15568;BME280;7885;42.596;23.044;2024-01-06T12:56:23;92192.63;;;14.83;64.69
15568;BME280;7885;42.596;23.044;2024-01-06T12:58:49;92205.91;;;15.70;62.41
15568;BME280;7885;42.596;23.044;2024-01-06T13:01:17;92188.16;;;15.96;60.20
15568;BME280;7885;42.596;23.044;2024-01-06T13:03:44;92185.97;;;15.91;59.90
15568;BME280;7885;42.596;23.044;2024-01-06T13:06:11;92192.19;;;15.70;60.60
15568;BME280;7885;42.596;23.044;2024-01-06T13:12:00;92196.69;;;15.98;57.34
15568;BME280;7885;42.596;23.044;2024-01-06T13:14:26;92195.41;;;15.90;57.34
15568;BME280;7885;42.596;23.044;2024-01-06T13:16:55;92168.56;;;15.85;57.75
15568;BME280;7885;42.596;23.044;2024-01-06T13:19:22;92158.94;;;16.02;57.24
15568;BME280;7885;42.596;23.044;2024-01-06T13:21:49;92158.13;;;15.80;57.29
15568;BME280;7885;42.596;23.044;2024-01-06T13:24:16;92160.56;;;15.78;56.72
15568;BME280;7885;42.596;23.044;2024-01-06T13:26:43;92170.00;;;15.77;56.39
15568;BME280;7885;42.596;23.044;2024-01-06T13:29:10;92162.34;;;15.72;56.68
15568;BME280;7885;42.596;23.044;2024-01-06T13:31:36;92153.13;;;15.65;58.15
15568;BME280;7885;42.596;23.044;2024-01-06T13:34:06;92170.50;;;15.62;58.07
15568;BME280;7885;42.596;23.044;2024-01-06T13:36:32;92148.19;;;15.73;58.29
15568;BME280;7885;42.596;23.044;2024-01-06T13:38:58;92157.44;;;15.88;58.46
15568;BME280;7885;42.596;23.044;2024-01-06T13:41:25;92145.94;;;15.46;58.65
15568;BME280;7885;42.596;23.044;2024-01-06T13:43:52;92170.28;;;14.85;60.55
15568;BME280;7885;42.596;23.044;2024-01-06T13:46:19;92138.19;;;14.47;62.29
15568;BME280;7885;42.596;23.044;2024-01-06T13:48:46;92197.13;;;14.23;63.85
15568;BME280;7885;42.596;23.044;2024-01-06T13:51:14;92171.28;;;13.83;65.26
15568;BME280;7885;42.596;23.044;2024-01-06T13:53:40;92160.25;;;13.57;67.53
15568;BME280;7885;42.596;23.044;2024-01-06T13:56:07;92172.44;;;13.40;68.56
15568;BME280;7885;42.596;23.044;2024-01-06T13:58:33;92174.41;;;13.24;69.88
15568;BME280;7885;42.596;23.044;2024-01-06T14:01:01;92163.31;;;13.14;69.89
15568;BME280;7885;42.596;23.044;2024-01-06T14:03:28;92167.69;;;13.12;70.41
15568;BME280;7885;42.596;23.044;2024-01-06T14:05:55;92139.56;;;12.95;70.46
15568;BME280;7885;42.596;23.044;2024-01-06T14:08:23;92164.09;;;13.15;69.67
15568;BME280;7885;42.596;23.044;2024-01-06T14:10:49;92156.22;;;13.33;69.13